Time;durP1;ratioP1;P1;durP2;ratioP2;P2;SDS_P1;SDS_P2;PMS_P1;PMS_P2;Temp;Humidity;BMP_temperature;BMP_pressure;BME280_temperature;BME280_humidity;BME280_pressure;Samples;Min_cycle;Max_cycle;Signal;HPM_P1;HPM_P2
2022/07/03 00:00:20;;;;;;;2.42;0.80;;;18.60;82.90;;;;;;4813890;28;10000610;-75
2022/07/03 00:02:46;;;;;;;2.60;1.10;;;18.60;83.60;;;;;;4693239;28;10000178;-75
2022/07/03 00:05:11;;;;;;;1.65;1.08;;;18.50;84.00;;;;;;5034114;28;20029;-75
2022/07/03 00:07:38;;;;;;;2.10;1.20;;;18.40;84.30;;;;;;5042252;28;20413;-75
2022/07/03 00:10:04;;;;;;;1.27;1.10;;;18.40;84.90;;;;;;5041035;28;20116;-75
2022/07/03 00:12:30;;;;;;;1.77;1.10;;;18.30;85.10;;;;;;5028497;28;20458;-75
2022/07/03 00:14:56;;;;;;;1.65;1.20;;;18.20;85.40;;;;;;5034217;28;20028;-75
2022/07/03 00:17:22;;;;;;;1.20;1.10;;;18.20;85.80;;;;;;5038692;28;20104;-75
2022/07/03 00:19:48;;;;;;;1.30;1.13;;;18.10;86.20;;;;;;5026189;28;20160;-75
2022/07/03 00:22:14;;;;;;;1.58;1.48;;;18.00;86.70;;;;;;5037899;28;20047;-75
2022/07/03 00:24:45;;;;;;;2.08;1.80;;;18.00;87.10;;;;;;5028083;28;20137;-74
2022/07/03 00:27:12;;;;;;;2.40;2.15;;;17.90;87.30;;;;;;5036530;28;20098;-75
2022/07/03 00:29:41;;;;;;;4.15;3.00;;;17.90;87.80;;;;;;5028132;28;20043;-75
2022/07/03 00:32:09;;;;;;;3.67;2.92;;;17.90;88.10;;;;;;5035456;28;20037;-75
2022/07/03 00:34:35;;;;;;;2.60;2.40;;;17.80;88.30;;;;;;5038170;28;20056;-75
2022/07/03 00:37:01;;;;;;;2.38;2.17;;;17.80;88.80;;;;;;5039028;28;20087;-75
2022/07/03 00:39:28;;;;;;;2.20;2.00;;;17.80;89.40;;;;;;5029984;28;20048;-75
2022/07/03 00:42:01;;;;;;;2.50;2.30;;;17.70;90.10;;;;;;5046136;28;20044;-75
2022/07/03 00:44:29;;;;;;;3.53;2.40;;;17.70;90.90;;;;;;5038221;28;20039;-75
2022/07/03 00:46:55;;;;;;;2.50;2.05;;;17.70;91.30;;;;;;5047058;28;20031;-75
2022/07/03 00:49:23;;;;;;;3.03;1.95;;;17.60;91.40;;;;;;5038834;28;20087;-75
2022/07/03 00:51:52;;;;;;;2.05;1.85;;;17.60;91.60;;;;;;5031945;28;20047;-75
2022/07/03 00:54:21;;;;;;;2.47;2.00;;;17.50;91.80;;;;;;5043512;28;20091;-75
2022/07/03 00:56:51;;;;;;;2.75;2.10;;;17.50;92.30;;;;;;5037462;28;20056;-75
2022/07/03 00:59:17;;;;;;;2.95;1.70;;;17.50;92.70;;;;;;5040633;28;20492;-75
2022/07/03 01:01:45;;;;;;;1.60;1.50;;;17.40;92.90;;;;;;5036334;28;20033;-75
2022/07/03 01:04:32;;;;;;;1.67;1.35;;;17.40;93.20;;;;;;5047866;28;20031;-75
2022/07/03 01:07:00;;;;;;;2.53;1.50;;;17.40;93.40;;;;;;5042409;28;20021;-75
2022/07/03 01:09:51;;;;;;;3.25;1.50;;;17.40;93.90;;;;;;5039281;28;20023;-75
2022/07/03 01:12:26;;;;;;;2.28;1.60;;;17.30;93.80;;;;;;5042233;28;20047;-75
2022/07/03 01:15:15;;;;;;;2.20;1.35;;;17.30;94.10;;;;;;5043069;28;20417;-75
2022/07/03 01:17:50;;;;;;;2.08;1.40;;;17.20;94.40;;;;;;5038670;28;20028;-75
2022/07/03 01:20:22;;;;;;;1.60;1.30;;;17.20;94.80;;;;;;5040808;28;20041;-75
2022/07/03 01:22:57;;;;;;;1.30;1.20;;;17.10;95.00;;;;;;5028648;28;20044;-75
2022/07/03 01:25:42;;;;;;;1.30;1.20;;;17.10;95.40;;;;;;5035160;28;20496;-75
2022/07/03 01:28:12;;;;;;;1.20;1.10;;;17.10;95.90;;;;;;5035458;28;20362;-75
2022/07/03 01:31:00;;;;;;;2.58;1.30;;;17.10;96.20;;;;;;5041637;28;20472;-75
2022/07/03 01:33:30;;;;;;;5.68;3.20;;;17.00;96.70;;;;;;5033736;28;20136;-75
2022/07/03 01:36:01;;;;;;;5.05;3.88;;;16.90;97.00;;;;;;5041914;28;20132;-75
2022/07/03 01:38:33;;;;;;;4.45;3.60;;;16.90;97.40;;;;;;5038416;28;20021;-75
2022/07/03 01:41:00;;;;;;;3.42;2.80;;;16.80;97.70;;;;;;5040995;28;20037;-75
2022/07/03 01:43:34;;;;;;;3.00;2.40;;;16.80;98.20;;;;;;5033184;28;20037;-74
2022/07/03 01:46:02;;;;;;;2.72;2.20;;;16.70;98.40;;;;;;5044420;28;20029;-75
2022/07/03 01:48:30;;;;;;;2.88;2.08;;;16.70;98.90;;;;;;5038074;28;20696;-75
2022/07/03 01:50:57;;;;;;;3.97;2.80;;;16.70;99.10;;;;;;5039449;28;20036;-75
2022/07/03 01:53:25;;;;;;;3.03;2.70;;;16.60;99.60;;;;;;5030695;28;20151;-75
2022/07/03 01:55:58;;;;;;;4.03;2.50;;;16.50;99.90;;;;;;5047596;28;20043;-75
2022/07/03 01:58:24;;;;;;;3.58;2.40;;;16.50;99.90;;;;;;5039192;28;20043;-75
2022/07/03 02:01:14;;;;;;;4.88;3.50;;;16.50;99.90;;;;;;5036026;28;20119;-75
2022/07/03 02:03:46;;;;;;;4.82;3.67;;;16.40;99.90;;;;;;5049404;28;20032;-75
2022/07/03 02:06:27;;;;;;;5.28;3.30;;;16.40;99.90;;;;;;5037684;28;20075;-75
2022/07/03 02:09:02;;;;;;;4.13;2.80;;;16.30;99.90;;;;;;5043789;28;20025;-75
2022/07/03 02:11:35;;;;;;;3.08;2.58;;;16.40;99.90;;;;;;5039254;28;20032;-75
2022/07/03 02:14:16;;;;;;;4.40;2.80;;;16.30;99.90;;;;;;5056824;28;20040;-75
2022/07/03 02:16:50;;;;;;;3.80;2.40;;;16.20;99.90;;;;;;5038325;28;20048;-75
2022/07/03 02:19:18;;;;;;;3.67;2.60;;;16.20;99.90;;;;;;5035472;28;20037;-75
2022/07/03 02:21:54;;;;;;;5.05;1.80;;;16.20;99.90;;;;;;5035641;28;20032;-75
2022/07/03 02:24:26;;;;;;;3.13;1.90;;;16.10;99.90;;;;;;5038338;28;20029;-75
2022/07/03 02:27:01;;;;;;;3.08;1.95;;;16.20;99.90;;;;;;5035767;28;20033;-75
2022/07/03 02:29:43;;;;;;;2.15;1.50;;;16.10;99.90;;;;;;5042517;28;20029;-75
2022/07/03 02:32:15;;;;;;;1.67;1.58;;;16.10;99.90;;;;;;5039824;28;20063;-75
2022/07/03 02:34:47;;;;;;;1.92;1.70;;;16.10;99.90;;;;;;5046560;28;20045;-75
2022/07/03 02:37:17;;;;;;;1.95;1.52;;;16.10;99.90;;;;;;5034339;28;20039;-75
2022/07/03 02:40:02;;;;;;;1.70;1.60;;;16.10;99.90;;;;;;5032275;28;20115;-75
2022/07/03 02:42:42;;;;;;;1.92;1.50;;;16.10;99.90;;;;;;5041329;28;20123;-75
2022/07/03 02:45:10;;;;;;;2.38;1.80;;;16.00;99.90;;;;;;5046260;28;20033;-75
2022/07/03 02:47:49;;;;;;;4.43;1.50;;;16.00;99.90;;;;;;5045881;28;20060;-75
2022/07/03 02:50:21;;;;;;;1.50;1.40;;;16.00;99.90;;;;;;5039483;28;20130;-75
2022/07/03 02:53:23;;;;;;;1.48;1.38;;;15.90;99.90;;;;;;5045269;28;20024;-75
2022/07/03 02:55:53;;;;;;;1.52;1.40;;;15.80;99.90;;;;;;4993746;28;20048;-75
2022/07/03 02:58:35;;;;;;;2.10;1.25;;;15.80;99.90;;;;;;5042721;28;20037;-75
2022/07/03 03:01:09;;;;;;;1.83;1.70;;;15.70;99.90;;;;;;5041068;28;20045;-75
2022/07/03 03:03:38;;;;;;;1.60;1.45;;;15.70;99.90;;;;;;5034121;28;20636;-75
2022/07/03 03:06:12;;;;;;;2.15;1.65;;;15.70;99.90;;;;;;5036299;28;20033;-75
2022/07/03 03:08:50;;;;;;;1.67;1.58;;;15.70;99.90;;;;;;5039204;28;20025;-75
2022/07/03 03:11:32;;;;;;;3.50;1.73;;;15.70;99.90;;;;;;5037708;28;20037;-75
2022/07/03 03:14:01;;;;;;;1.57;1.47;;;15.70;99.90;;;;;;5035849;28;20258;-75
2022/07/03 03:16:27;;;;;;;2.78;1.42;;;15.60;99.90;;;;;;5045736;28;20120;-75
2022/07/03 03:18:53;;;;;;;1.60;1.50;;;15.60;99.90;;;;;;5029118;28;20386;-75
2022/07/03 03:21:19;;;;;;;1.88;1.65;;;15.60;99.90;;;;;;5048626;28;20194;-76
2022/07/03 03:23:52;;;;;;;1.73;1.38;;;15.60;99.90;;;;;;5040561;28;20042;-75
2022/07/03 03:26:19;;;;;;;1.45;1.30;;;15.60;99.90;;;;;;5041500;28;20029;-75
2022/07/03 03:28:45;;;;;;;1.65;1.52;;;15.60;99.90;;;;;;5042200;28;20472;-75
2022/07/03 03:31:12;;;;;;;1.80;1.70;;;15.60;99.90;;;;;;5035998;28;20079;-75
2022/07/03 03:33:42;;;;;;;2.88;1.65;;;15.60;99.90;;;;;;5046149;28;20048;-75
2022/07/03 03:36:13;;;;;;;1.40;1.30;;;15.60;99.90;;;;;;5042227;28;20123;-75
2022/07/03 03:38:40;;;;;;;3.25;1.65;;;15.60;99.90;;;;;;5037834;28;20040;-75
2022/07/03 03:41:07;;;;;;;1.95;1.60;;;15.70;99.90;;;;;;5039475;28;20112;-75
2022/07/03 03:43:33;;;;;;;2.90;1.50;;;15.60;99.90;;;;;;5045510;28;20021;-75
2022/07/03 03:46:00;;;;;;;1.45;1.35;;;15.70;99.90;;;;;;5042445;28;20088;-75
2022/07/03 03:48:31;;;;;;;1.85;1.50;;;15.70;99.90;;;;;;5036116;28;20017;-75
2022/07/03 03:50:57;;;;;;;1.65;1.55;;;15.80;99.90;;;;;;5035953;28;20029;-75
2022/07/03 03:53:24;;;;;;;2.60;1.90;;;15.90;99.90;;;;;;5044213;28;20679;-75
2022/07/03 03:56:06;;;;;;;2.30;1.65;;;15.90;99.90;;;;;;5047546;28;20102;-75
2022/07/03 03:58:33;;;;;;;2.35;2.13;;;15.90;99.90;;;;;;5035048;28;20029;-75
2022/07/03 04:01:00;;;;;;;2.38;2.17;;;15.80;99.90;;;;;;5037365;28;20766;-75
2022/07/03 04:03:27;;;;;;;1.95;1.83;;;15.90;99.90;;;;;;5040240;28;20040;-75
2022/07/03 04:05:53;;;;;;;2.83;2.10;;;15.90;99.90;;;;;;5034410;28;20043;-75
2022/07/03 04:08:20;;;;;;;5.32;1.98;;;15.90;99.90;;;;;;5037855;28;20029;-75
2022/07/03 04:10:47;;;;;;;2.53;1.73;;;16.00;99.90;;;;;;5040002;28;20033;-75
2022/07/03 04:13:13;;;;;;;3.85;1.63;;;16.10;99.90;;;;;;5046067;28;20646;-74
2022/07/03 04:15:39;;;;;;;2.85;2.22;;;16.60;99.90;;;;;;5041938;28;20029;-75
2022/07/03 04:18:04;;;;;;;2.22;1.90;;;17.70;99.90;;;;;;5042454;28;20036;-75
2022/07/03 04:20:30;;;;;;;2.55;2.00;;;19.40;99.90;;;;;;5039930;28;20039;-74
2022/07/03 04:22:56;;;;;;;2.70;2.30;;;;;;;;;;5036327;28;20029;-75
2022/07/03 04:25:22;;;;;;;4.55;3.33;;;22.40;97.00;;;;;;5044887;28;20025;-75
2022/07/03 04:27:48;;;;;;;7.82;3.85;;;23.70;93.20;;;;;;5044939;28;20033;-75
2022/07/03 04:30:13;;;;;;;6.53;3.90;;;24.20;90.40;;;;;;5037805;28;20469;-75
2022/07/03 04:32:39;;;;;;;7.60;4.32;;;24.00;88.80;;;;;;5033625;28;20090;-75
2022/07/03 04:35:05;;;;;;;6.65;3.80;;;23.10;90.00;;;;;;5052301;28;20087;-75
2022/07/03 04:37:31;;;;;;;5.22;3.50;;;22.40;91.00;;;;;;5045812;28;20094;-75
2022/07/03 04:39:57;;;;;;;3.72;2.85;;;21.60;91.50;;;;;;5042322;28;20032;-75
2022/07/03 04:42:22;;;;;;;6.68;3.03;;;21.00;92.60;;;;;;5043929;28;20171;-75
2022/07/03 04:44:48;;;;;;;3.67;2.65;;;20.30;93.90;;;;;;5056516;28;20021;-75
2022/07/03 04:47:14;;;;;;;3.58;2.60;;;19.90;95.00;;;;;;5042829;28;20025;-74
2022/07/03 04:49:43;;;;;;;5.65;2.67;;;19.60;95.50;;;;;;5039133;28;20588;-74
2022/07/03 04:52:09;;;;;;;6.40;2.70;;;19.30;96.30;;;;;;5045079;28;20523;-75
2022/07/03 04:54:35;;;;;;;4.03;2.60;;;19.30;96.90;;;;;;5024047;28;20041;-75
2022/07/03 04:57:01;;;;;;;3.22;2.42;;;19.20;97.30;;;;;;5023581;28;20037;-74
2022/07/03 04:59:26;;;;;;;3.10;2.63;;;19.10;97.60;;;;;;5019323;28;20037;-75
2022/07/03 05:01:52;;;;;;;3.22;2.25;;;19.10;98.00;;;;;;5028827;28;20082;-74
2022/07/03 05:04:18;;;;;;;2.00;1.75;;;19.10;98.00;;;;;;5025197;28;20036;-74
2022/07/03 05:06:44;;;;;;;2.00;1.80;;;19.10;97.90;;;;;;5021949;28;20064;-74
2022/07/03 05:09:09;;;;;;;2.55;1.77;;;19.20;97.80;;;;;;5018929;28;21082;-75
2022/07/03 05:11:35;;;;;;;4.13;1.63;;;19.20;97.30;;;;;;5020231;28;20116;-75
2022/07/03 05:14:02;;;;;;;2.33;1.73;;;19.00;97.20;;;;;;5020747;28;20029;-74
2022/07/03 05:16:28;;;;;;;3.58;1.60;;;19.00;97.90;;;;;;5025311;28;20509;-74
2022/07/03 05:18:54;;;;;;;2.33;1.85;;;19.20;97.80;;;;;;5030917;28;20060;-75
2022/07/03 05:21:19;;;;;;;1.50;1.40;;;19.20;97.60;;;;;;5018035;28;20039;-75
2022/07/03 05:23:45;;;;;;;1.67;1.58;;;19.10;97.50;;;;;;5029632;28;20033;-74
2022/07/03 05:26:10;;;;;;;4.20;1.73;;;19.10;97.90;;;;;;5024038;28;20231;-74
2022/07/03 05:28:36;;;;;;;1.92;1.80;;;19.30;98.30;;;;;;5021455;28;20102;-74
2022/07/03 05:31:02;;;;;;;1.65;1.55;;;19.50;98.10;;;;;;5022200;28;20110;-74
2022/07/03 05:33:28;;;;;;;3.70;1.83;;;19.60;97.60;;;;;;5022702;28;20049;-74
2022/07/03 05:35:58;;;;;;;5.30;1.60;;;19.70;97.70;;;;;;5022337;28;20034;-74
2022/07/03 05:41:08;;;;;;;3.40;2.10;;;19.80;98.70;;;;;;5026359;28;20473;-74
2022/07/03 05:43:34;;;;;;;5.90;2.20;;;19.90;98.90;;;;;;5024363;28;20033;-74
2022/07/03 05:46:00;;;;;;;2.45;2.10;;;20.10;98.90;;;;;;5028370;28;20033;-74
2022/07/03 05:48:25;;;;;;;5.68;2.33;;;20.20;98.80;;;;;;5025700;28;20060;-74
2022/07/03 05:50:51;;;;;;;2.67;2.10;;;20.20;98.30;;;;;;5039424;28;20035;-74
2022/07/03 05:53:17;;;;;;;2.92;2.50;;;20.20;98.20;;;;;;5041575;28;20056;-75
2022/07/03 05:55:42;;;;;;;3.65;2.00;;;20.30;98.20;;;;;;5044274;28;20631;-76
2022/07/03 05:58:08;;;;;;;6.28;2.45;;;20.40;98.20;;;;;;5040893;28;20025;-76
2022/07/03 06:00:34;;;;;;;2.30;2.10;;;20.40;98.00;;;;;;5054694;28;20037;-77
2022/07/03 06:03:01;;;;;;;3.20;2.00;;;20.50;97.80;;;;;;5036611;28;20160;-77
2022/07/03 06:05:27;;;;;;;3.55;1.83;;;20.50;97.50;;;;;;5036380;28;20105;-77
2022/07/03 06:07:52;;;;;;;2.65;1.80;;;20.60;97.40;;;;;;5043302;28;20100;-77
2022/07/03 06:10:18;;;;;;;1.92;1.63;;;20.70;97.40;;;;;;5039542;28;20028;-76
2022/07/03 06:12:43;;;;;;;1.80;1.70;;;20.70;96.90;;;;;;5041841;28;20025;-77
2022/07/03 06:15:09;;;;;;;2.65;1.60;;;20.80;96.70;;;;;;5034942;28;20059;-77
2022/07/03 06:17:36;;;;;;;2.83;1.65;;;21.00;96.20;;;;;;5043403;28;20029;-77
2022/07/03 06:20:06;;;;;;;1.92;1.65;;;21.00;96.20;;;;;;5040294;28;20035;-77
2022/07/03 06:22:32;;;;;;;1.60;1.50;;;21.20;96.60;;;;;;5034333;28;20033;-77
2022/07/03 06:24:58;;;;;;;2.67;1.67;;;21.40;95.60;;;;;;5040001;28;20029;-77
2022/07/03 06:27:24;;;;;;;28.42;2.55;;;21.70;94.80;;;;;;5047198;28;20032;-75
2022/07/03 06:29:49;;;;;;;4.07;1.70;;;21.80;94.50;;;;;;5040287;28;20356;-77
2022/07/03 06:32:16;;;;;;;2.20;1.58;;;22.00;94.80;;;;;;5037359;28;20033;-75
2022/07/03 06:34:45;;;;;;;3.70;1.50;;;22.20;94.10;;;;;;5045005;28;20044;-75
2022/07/03 06:37:11;;;;;;;2.90;1.60;;;22.30;93.70;;;;;;5045655;28;20017;-74
2022/07/03 06:39:37;;;;;;;3.08;1.30;;;22.40;93.40;;;;;;5041625;28;20055;-74
2022/07/03 06:42:03;;;;;;;2.15;1.20;;;22.50;93.50;;;;;;5038334;28;20029;-75
2022/07/03 06:44:29;;;;;;;1.65;1.30;;;22.70;93.50;;;;;;5039371;28;20017;-74
2022/07/03 06:46:54;;;;;;;2.72;1.23;;;22.90;92.80;;;;;;5053844;28;20036;-74
2022/07/03 06:49:20;;;;;;;3.08;1.60;;;23.20;92.50;;;;;;5054609;28;20033;-74
2022/07/03 06:51:46;;;;;;;2.13;1.20;;;23.30;91.70;;;;;;5058257;28;20031;-74
2022/07/03 06:54:12;;;;;;;3.90;1.25;;;23.10;91.20;;;;;;5048385;28;20021;-74
2022/07/03 06:56:37;;;;;;;1.75;1.13;;;23.20;92.10;;;;;;5036995;28;20051;-74
2022/07/03 06:59:03;;;;;;;2.28;1.10;;;23.50;91.50;;;;;;5038975;28;20128;-74
2022/07/03 07:01:29;;;;;;;1.70;1.20;;;23.70;91.10;;;;;;5047772;28;20476;-74
2022/07/03 07:03:54;;;;;;;1.40;1.20;;;24.00;90.30;;;;;;5041045;28;20025;-74
2022/07/03 07:06:20;;;;;;;2.28;1.00;;;24.10;89.00;;;;;;5042560;28;20377;-74
2022/07/03 07:08:46;;;;;;;1.63;1.10;;;24.00;88.40;;;;;;5044466;28;20029;-74
2022/07/03 07:11:12;;;;;;;1.77;1.00;;;24.00;90.00;;;;;;5045022;28;20235;-74
2022/07/03 07:13:38;;;;;;;3.95;1.13;;;24.30;89.30;;;;;;5028708;28;20053;-74
2022/07/03 07:16:04;;;;;;;2.15;1.02;;;24.50;87.50;;;;;;5052854;28;20021;-74
2022/07/03 07:18:30;;;;;;;1.27;0.95;;;24.70;86.20;;;;;;5045373;28;20618;-74
2022/07/03 07:20:55;;;;;;;2.95;1.10;;;24.90;83.90;;;;;;5039850;28;20029;-74
2022/07/03 07:23:21;;;;;;;3.72;1.05;;;25.10;84.30;;;;;;5044709;28;20029;-74
2022/07/03 07:25:46;;;;;;;1.67;1.02;;;25.40;82.50;;;;;;5047773;28;20732;-74
2022/07/03 07:28:12;;;;;;;0.80;0.80;;;25.80;80.40;;;;;;5047719;28;20025;-74
2022/07/03 07:30:41;;;;;;;2.72;0.98;;;25.80;79.60;;;;;;5026506;28;20018;-75
2022/07/03 07:33:07;;;;;;;1.02;0.90;;;25.70;77.60;;;;;;5038523;28;20442;-74
2022/07/03 07:35:33;;;;;;;2.08;1.00;;;25.50;76.30;;;;;;5027940;28;20069;-75
2022/07/03 07:37:59;;;;;;;2.30;1.00;;;25.40;77.50;;;;;;5028305;28;20342;-74
2022/07/03 07:40:24;;;;;;;0.70;0.70;;;25.40;77.50;;;;;;5035273;28;20099;-75
2022/07/03 07:42:50;;;;;;;2.25;1.00;;;25.40;77.20;;;;;;5045087;28;20115;-74
2022/07/03 07:45:16;;;;;;;3.10;0.80;;;25.60;78.70;;;;;;5045468;28;20481;-75
2022/07/03 07:47:41;;;;;;;2.45;0.80;;;25.80;76.50;;;;;;5043210;28;20036;-75
2022/07/03 07:50:07;;;;;;;5.30;1.00;;;26.10;76.50;;;;;;5048554;28;20336;-75
2022/07/03 07:52:33;;;;;;;3.40;0.82;;;26.10;75.70;;;;;;5047510;28;20078;-74
2022/07/03 07:54:58;;;;;;;3.13;1.10;;;26.20;76.60;;;;;;5037768;28;20037;-74
2022/07/03 07:57:24;;;;;;;1.52;0.90;;;26.50;76.10;;;;;;5034466;28;20030;-74
2022/07/03 07:59:50;;;;;;;1.10;1.10;;;26.70;74.00;;;;;;5039542;28;20392;-74
2022/07/03 08:07:43;;;;;;;1.92;1.00;;;26.80;72.70;;;;;;5031381;28;20056;-74
2022/07/03 08:10:09;;;;;;;4.03;1.00;;;26.90;73.30;;;;;;5037604;28;20513;-74
2022/07/03 08:12:34;;;;;;;3.97;1.00;;;27.00;73.10;;;;;;5050688;28;20037;-74
2022/07/03 08:15:00;;;;;;;1.00;0.90;;;27.10;72.20;;;;;;5051095;28;20087;-74
2022/07/03 08:17:26;;;;;;;0.98;0.70;;;27.40;72.10;;;;;;5043902;28;20400;-74
2022/07/03 08:19:51;;;;;;;3.42;0.73;;;27.60;69.60;;;;;;5039424;28;20040;-74
2022/07/03 08:22:17;;;;;;;0.70;0.70;;;28.00;69.60;;;;;;5040087;28;20467;-74
2022/07/03 08:24:43;;;;;;;1.02;0.70;;;28.10;68.00;;;;;;5039809;28;20600;-74
2022/07/03 08:27:08;;;;;;;0.85;0.77;;;28.10;67.50;;;;;;5056094;28;20086;-74
2022/07/03 08:29:34;;;;;;;0.90;0.90;;;28.10;67.50;;;;;;5050651;28;20031;-74
2022/07/03 08:31:59;;;;;;;3.10;0.90;;;28.20;68.30;;;;;;5033146;28;20037;-75
2022/07/03 08:34:25;;;;;;;1.75;0.70;;;28.40;67.80;;;;;;5051866;28;20071;-75
2022/07/03 08:36:50;;;;;;;1.40;0.80;;;28.70;65.90;;;;;;5046711;28;20029;-75
2022/07/03 08:39:16;;;;;;;1.63;0.80;;;28.80;66.70;;;;;;5025277;28;20087;-74
2022/07/03 08:41:42;;;;;;;0.70;0.70;;;29.00;65.10;;;;;;5030865;28;20039;-74
2022/07/03 08:44:09;;;;;;;1.73;0.80;;;28.90;64.60;;;;;;5055085;28;20028;-75
2022/07/03 08:46:35;;;;;;;1.38;0.68;;;28.80;65.40;;;;;;5051093;28;20021;-75
2022/07/03 08:49:02;;;;;;;0.80;0.70;;;28.90;64.60;;;;;;5031547;28;20080;-75
2022/07/03 08:51:27;;;;;;;0.70;0.70;;;28.90;63.00;;;;;;5044908;28;20064;-75
2022/07/03 08:53:54;;;;;;;0.93;0.80;;;28.90;61.70;;;;;;5042759;28;20057;-74
2022/07/03 08:56:21;;;;;;;1.15;0.70;;;28.90;62.00;;;;;;5046618;28;20112;-74
2022/07/03 08:58:47;;;;;;;1.00;0.82;;;28.90;61.90;;;;;;5028029;28;20548;-75
2022/07/03 09:01:18;;;;;;;1.95;0.90;;;29.10;61.20;;;;;;5034410;28;20037;-75
2022/07/03 09:03:44;;;;;;;3.80;0.80;;;29.10;62.30;;;;;;5030136;28;20052;-75
2022/07/03 09:06:14;;;;;;;0.88;0.60;;;29.10;62.40;;;;;;5048952;28;20092;-74
2022/07/03 09:08:40;;;;;;;1.10;0.90;;;29.00;61.90;;;;;;5043955;28;20045;-75
2022/07/03 09:11:06;;;;;;;0.70;0.70;;;29.10;63.20;;;;;;5037033;28;20393;-74
2022/07/03 09:13:32;;;;;;;1.00;0.70;;;29.10;61.40;;;;;;5046004;28;20033;-74
2022/07/03 09:15:58;;;;;;;1.35;0.80;;;28.90;60.60;;;;;;5041893;28;20039;-74
2022/07/03 09:18:44;;;;;;;0.77;0.60;;;28.90;61.10;;;;;;5048436;28;20479;-74
2022/07/03 09:21:10;;;;;;;1.40;0.80;;;29.10;61.50;;;;;;5042076;28;20126;-74
2022/07/03 09:23:41;;;;;;;1.08;0.98;;;29.10;59.60;;;;;;5049453;28;20377;-74
2022/07/03 09:26:15;;;;;;;1.02;0.73;;;29.10;59.50;;;;;;5048738;28;20029;-75
2022/07/03 09:28:51;;;;;;;2.00;0.70;;;29.10;59.10;;;;;;5044059;28;20108;-76
2022/07/03 09:31:20;;;;;;;1.88;0.80;;;29.10;59.90;;;;;;5036839;28;20033;-77
2022/07/03 09:34:04;;;;;;;1.25;0.75;;;29.20;58.80;;;;;;5046747;28;20052;-77
2022/07/03 09:36:43;;;;;;;0.70;0.70;;;29.30;59.40;;;;;;5045212;28;20048;-77
2022/07/03 09:39:30;;;;;;;1.48;0.80;;;29.40;58.00;;;;;;5033975;28;20044;-77
2022/07/03 09:42:02;;;;;;;4.65;1.00;;;29.40;58.30;;;;;;5043270;28;20078;-77
2022/07/03 09:44:40;;;;;;;4.10;0.73;;;29.40;57.90;;;;;;5040785;28;20021;-77
2022/07/03 09:47:25;;;;;;;1.17;0.70;;;29.30;57.80;;;;;;5046357;28;20029;-77
2022/07/03 09:50:02;;;;;;;1.55;0.70;;;29.30;57.10;;;;;;5043888;28;20503;-77
2022/07/03 09:52:40;;;;;;;1.27;0.65;;;29.20;57.40;;;;;;5033218;28;20124;-77
2022/07/03 09:55:08;;;;;;;2.78;0.70;;;29.40;57.00;;;;;;5043940;28;20345;-77
2022/07/03 09:57:35;;;;;;;0.82;0.60;;;29.40;56.10;;;;;;5045348;28;20029;-77
2022/07/03 10:00:14;;;;;;;2.13;0.77;;;29.20;57.00;;;;;;5050926;28;20074;-77
2022/07/03 10:03:03;;;;;;;1.73;0.73;;;29.10;58.00;;;;;;5040141;28;20025;-77
2022/07/03 10:05:36;;;;;;;1.85;0.68;;;29.00;58.90;;;;;;5038770;28;20103;-77
2022/07/03 10:08:04;;;;;;;2.17;0.70;;;28.90;57.40;;;;;;5041076;28;20114;-77
2022/07/03 10:10:33;;;;;;;2.45;0.80;;;28.90;57.30;;;;;;5043343;28;20393;-76
2022/07/03 10:12:59;;;;;;;2.47;0.68;;;29.20;56.80;;;;;;5047657;28;20365;-76
2022/07/03 10:15:26;;;;;;;2.17;0.98;;;29.10;56.20;;;;;;5048147;28;20056;-77
2022/07/03 10:17:56;;;;;;;2.45;0.77;;;28.80;56.10;;;;;;5045710;28;20036;-77
2022/07/03 10:20:34;;;;;;;4.63;0.80;;;28.60;56.70;;;;;;5037700;28;20032;-77
2022/07/03 10:23:01;;;;;;;1.33;0.80;;;28.60;58.80;;;;;;5041422;28;20025;-77
2022/07/03 10:25:27;;;;;;;2.58;0.70;;;28.90;57.50;;;;;;5038974;28;20041;-77
2022/07/03 10:27:54;;;;;;;0.60;0.60;;;29.20;57.10;;;;;;5044388;28;20072;-76
2022/07/03 10:30:22;;;;;;;1.85;0.75;;;29.50;56.50;;;;;;5031122;28;20112;-77
2022/07/03 10:32:49;;;;;;;2.10;0.60;;;29.80;57.00;;;;;;5048453;28;20410;-77
2022/07/03 10:35:22;;;;;;;1.23;0.70;;;30.10;55.80;;;;;;4695419;28;9999727;-79
2022/07/03 10:37:56;;;;;;;1.10;0.67;;;30.20;55.20;;;;;;5037076;28;20060;-78
2022/07/03 10:46:17;;;;;;;2.85;0.68;;;29.10;54.50;;;;;;5045809;28;20036;-82
2022/07/03 10:48:58;;;;;;;1.23;0.80;;;29.00;54.90;;;;;;5039935;28;20032;-79
2022/07/03 10:51:25;;;;;;;1.15;0.60;;;29.10;55.00;;;;;;5039292;28;20021;-81
2022/07/03 10:54:17;;;;;;;1.27;0.88;;;29.20;54.90;;;;;;5040484;28;20111;-80
2022/07/03 10:56:58;;;;;;;2.25;1.10;;;29.10;55.80;;;;;;5037305;28;20041;-80
2022/07/03 10:59:47;;;;;;;1.13;0.90;;;28.90;56.40;;;;;;5040062;28;20753;-83
2022/07/03 11:02:23;;;;;;;2.10;0.77;;;29.00;57.40;;;;;;5029940;28;20037;-80
2022/07/03 11:05:06;;;;;;;3.25;0.60;;;29.40;56.30;;;;;;5029664;28;20059;-79
2022/07/03 11:07:50;;;;;;;;;;;29.70;52.30;;;;;;5041879;28;20037;-81
2022/07/03 11:10:16;;;;;;;0.90;0.50;;;30.00;53.10;;;;;;5029017;28;19920;-80
2022/07/03 11:13:11;;;;;;;2.55;0.60;;;30.40;51.80;;;;;;5040059;28;20038;-79
2022/07/03 11:15:37;;;;;;;2.33;0.50;;;30.70;51.50;;;;;;5033723;28;20029;-82
2022/07/03 11:18:07;;;;;;;0.82;0.40;;;30.90;51.10;;;;;;5041903;28;20197;-82
2022/07/03 11:20:42;;;;;;;3.75;0.50;;;30.80;49.40;;;;;;5032016;28;20481;-78
2022/07/03 11:23:17;;;;;;;0.50;0.50;;;30.50;50.40;;;;;;5034793;28;20057;-78
2022/07/03 11:25:51;;;;;;;2.17;0.50;;;30.20;50.60;;;;;;5040203;28;20417;-80
2022/07/03 11:28:32;;;;;;;0.90;0.50;;;29.90;50.60;;;;;;5048636;28;20489;-81
2022/07/03 11:31:18;;;;;;;1.80;0.50;;;29.90;51.40;;;;;;5033378;28;20045;-80
2022/07/03 11:33:55;;;;;;;2.38;0.40;;;29.60;51.60;;;;;;5039325;28;20412;-84
2022/07/03 11:36:28;;;;;;;0.95;0.43;;;29.60;52.40;;;;;;5031018;28;20024;-80
2022/07/03 11:38:59;;;;;;;3.03;0.40;;;29.90;53.30;;;;;;5033008;28;20032;-82
2022/07/03 11:41:27;;;;;;;0.98;0.60;;;30.20;51.30;;;;;;5039432;28;20068;-79
2022/07/03 11:44:02;;;;;;;0.85;0.40;;;30.60;49.20;;;;;;5051572;28;20063;-82
2022/07/03 11:46:30;;;;;;;0.40;0.40;;;30.80;48.20;;;;;;5044459;28;20035;-82
2022/07/03 11:49:06;;;;;;;0.90;0.30;;;31.10;47.90;;;;;;5038726;28;20164;-80
2022/07/03 11:51:32;;;;;;;1.05;0.40;;;31.40;46.80;;;;;;5044067;28;20029;-79
2022/07/03 11:53:57;;;;;;;1.45;0.40;;;31.60;46.00;;;;;;5034260;28;20033;-79
2022/07/03 11:56:23;;;;;;;1.27;0.40;;;31.80;47.50;;;;;;5034764;28;20031;-77
2022/07/03 11:58:51;;;;;;;5.10;0.50;;;31.90;45.20;;;;;;5042097;28;20082;-77
2022/07/03 12:01:26;;;;;;;2.22;0.50;;;31.70;46.30;;;;;;5026848;28;20037;-77
2022/07/03 12:03:53;;;;;;;2.88;0.50;;;31.80;47.50;;;;;;5029480;28;20033;-77
2022/07/03 12:06:20;;;;;;;1.95;0.50;;;31.80;47.50;;;;;;5041863;28;20033;-79
2022/07/03 12:08:46;;;;;;;2.78;0.50;;;32.00;47.90;;;;;;5030451;28;20022;-79
2022/07/03 12:11:14;;;;;;;1.90;0.52;;;32.30;46.90;;;;;;5024842;28;20045;-79
2022/07/03 12:13:40;;;;;;;4.10;0.60;;;32.30;47.20;;;;;;5036024;28;20029;-81
2022/07/03 12:16:12;;;;;;;5.78;0.52;;;32.10;46.90;;;;;;5042509;28;20044;-81
2022/07/03 12:18:56;;;;;;;0.82;0.50;;;31.70;46.80;;;;;;5036895;28;20106;-82
2022/07/03 12:21:22;;;;;;;3.90;0.50;;;31.10;47.80;;;;;;5032552;28;20040;-80
2022/07/03 12:23:55;;;;;;;0.88;0.52;;;30.90;48.60;;;;;;5033218;28;20481;-79
2022/07/03 12:26:32;;;;;;;0.80;0.50;;;30.90;48.50;;;;;;5039619;28;20110;-79
2022/07/03 12:28:59;;;;;;;0.77;0.45;;;31.10;48.90;;;;;;5034934;28;20033;-82
2022/07/03 12:31:26;;;;;;;0.85;0.40;;;31.50;47.80;;;;;;5022798;28;20060;-83
2022/07/03 12:33:52;;;;;;;3.30;0.40;;;31.60;47.80;;;;;;5036518;28;20049;-79
2022/07/03 12:36:18;;;;;;;0.98;0.63;;;31.70;47.90;;;;;;5030983;28;20059;-81
2022/07/03 12:38:54;;;;;;;3.60;0.60;;;32.00;47.70;;;;;;5043866;28;20681;-82
2022/07/03 12:41:21;;;;;;;0.85;0.60;;;32.30;47.30;;;;;;5034446;28;20095;-83
2022/07/03 12:43:48;;;;;;;3.22;0.43;;;32.50;47.40;;;;;;5039110;28;20029;-81
2022/07/03 12:46:22;;;;;;;1.27;0.60;;;32.50;46.00;;;;;;5033985;28;20040;-81
2022/07/03 12:48:56;;;;;;;1.90;0.50;;;32.20;46.20;;;;;;5046965;28;20062;-82
2022/07/03 12:51:44;;;;;;;1.30;0.60;;;32.20;46.50;;;;;;5040476;28;20032;-82
2022/07/03 12:54:15;;;;;;;4.68;0.63;;;32.40;46.80;;;;;;5031087;28;20233;-81
2022/07/03 12:56:42;;;;;;;3.78;0.50;;;32.30;47.10;;;;;;5037166;28;20033;-82
2022/07/03 12:59:24;;;;;;;0.50;0.47;;;31.90;46.80;;;;;;5042304;28;20033;-81
2022/07/03 13:02:06;;;;;;;4.18;0.52;;;31.30;47.20;;;;;;5029814;28;20044;-81
2022/07/03 13:04:33;;;;;;;2.88;0.57;;;31.10;48.00;;;;;;5025418;28;20052;-81
2022/07/03 13:07:06;;;;;;;1.20;0.55;;;30.90;48.90;;;;;;5036716;28;20024;-86
2022/07/03 13:09:33;;;;;;;0.93;0.50;;;30.90;48.80;;;;;;5031434;28;20059;-83
2022/07/03 13:11:59;;;;;;;0.57;0.50;;;31.10;49.30;;;;;;5045957;28;20036;-79
2022/07/03 13:14:24;;;;;;;2.75;0.60;;;31.50;47.30;;;;;;5038667;28;20031;-78